• Join FlightAware (Why Join?)
  • Login
  • US Flag 
01:04PM EDT


 

Airport Tracker/Info


-or-


 

Live Flight TrackerFlight Track Log ✈ SKW5550 ✈ 03-Jul-2013 ✈ KCOD - KDEN

Flight Track Log - Related Links

Times and Time Zones

All times are in EDT time to prevent confusion due to time zone crossing. See the SKW5550 flight status page for this flight to view local times or setup timezone preferences in your user account.

Time Position Orientation Groundspeed Altitude Reporting Facility
EDT Latitude Longitude Course Direction KTS MPH feet Rate Location/Type
09:02AM 44.5467 -108.9850 142° Southeast 175 201 6,400  Level Salt Lake Center
09:03AM 43.5137 -108.3215 156° South  Level FlightAware Approximate
09:03AM 44.6028 -108.9764 North 206 237 8,300  Level Salt Lake Center
09:04AM 43.4258 -108.2569 142° Southeast  Level FlightAware Approximate
09:04AM 44.6289 -108.9050 63° Northeast 229 264 10,200  Level Salt Lake Center
09:05AM 43.3472 -108.1710 142° Southeast  Level FlightAware Approximate
09:06AM 43.2686 -108.0854 142° Southeast  Level FlightAware Approximate
09:06AM 44.5589 -108.8542 153° Southeast 275 316 12,000  Level Salt Lake Center
09:07AM 43.1875 -108.0042 144° Southeast  Level FlightAware Approximate
09:07AM 44.4711 -108.7797 149° Southeast 301 346 14,100  Level Salt Lake Center
09:08AM 43.1083 -107.9199 142° Southeast  Level FlightAware Approximate
09:08AM 44.3889 -108.7083 148° Southeast 332 382 15,300  Level Salt Lake Center
09:09AM 44.3022 -108.6306 147° Southeast 358 412 16,700 1,500 Climbing Salt Lake Center
09:10AM 44.2144 -108.5544 148° Southeast 370 426 18,400 1,620 Climbing Salt Lake Center
09:11AM 44.1275 -108.4778 148° Southeast 371 427 20,100 1,260 Climbing Salt Lake Center
09:12AM 44.0381 -108.3994 148° Southeast 377 434 21,000 840 Climbing Salt Lake Center
09:13AM 43.9447 -108.3194 148° Southeast 391 450 21,900 900 Climbing Salt Lake Center
09:14AM 43.8486 -108.2353 148° Southeast 406 467 22,900 900 Climbing Salt Lake Center
09:15AM 43.7514 -108.1494 147° Southeast 414 476 23,800 840 Climbing Salt Lake Center
09:16AM 43.6522 -108.0633 148° Southeast 421 484 24,700 840 Climbing Salt Lake Center
09:17AM 43.5517 -107.9769 148° Southeast 427 491 25,600 900 Climbing Salt Lake Center
09:18AM 43.4297 -107.8725 148° Southeast 432 497 26,600 780 Climbing Salt Lake Center
09:19AM 43.3261 -107.7822 148° Southeast 440 506 27,200 660 Climbing Salt Lake Center
09:20AM 43.2208 -107.6947 149° Southeast 442 509 28,000 660 Climbing Salt Lake Center
09:21AM 43.1147 -107.6053 148° Southeast 448 516 28,600 540 Climbing Salt Lake Center
09:22AM 43.0081 -107.5142 148° Southeast 453 521 29,100 420 Climbing Salt Lake Center
09:23AM 42.9061 -107.4281 148° Southeast 460 529 29,500 480 Climbing Salt Lake Center
09:24AM 42.7836 -107.3253 148° Southeast 463 533 30,100 540 Climbing Salt Lake Center
09:25AM 42.6767 -107.2353 148° Southeast 468 539 30,600 420 Climbing Salt Lake Center
09:26AM 42.5522 -107.1314 148° Southeast 469 540 31,000 180 Climbing Salt Lake Center
09:27AM 42.4422 -107.0414 149° Southeast 479 551 31,000  Level Salt Lake Center
09:28AM 42.3375 -106.9442 146° Southeast 478 550 31,000  Level Denver Center
09:29AM 42.2164 -106.8272 144° Southeast 479 551 31,000  Level Denver Center
09:30AM 42.1106 -106.7281 145° Southeast 482 555 31,000  Level Denver Center
09:31AM 42.0050 -106.6281 145° Southeast 483 556 31,000  Level Denver Center
09:32AM 41.8831 -106.5128 145° Southeast 480 552 31,000 -360 Level Denver Center
09:33AM 41.7725 -106.4097 145° Southeast 473 544 30,300 -840 Descending Denver Center
09:34AM 41.6661 -106.3108 145° Southeast 484 557 29,300 -1,020 Descending Denver Center
09:35AM 41.5589 -106.2106 145° Southeast 489 563 28,300 -1,080 Descending Denver Center
09:36AM 41.4367 -106.0975 145° Southeast 482 555 27,200 -1,020 Descending Denver Center
09:37AM 41.3319 -106.0008 145° Southeast 479 551 26,300 -1,080 Descending Denver Center
09:38AM 41.2111 -105.8889 145° Southeast 475 547 25,100 -660 Descending Denver Center
09:39AM 41.1100 -105.7967 145° Southeast 466 536 25,000 -60 Descending Denver Center
09:40AM 41.0075 -105.7033 145° Southeast 460 529 25,000  Level Denver Center
09:41AM 40.9022 -105.6078 146° Southeast 460 529 25,000 -540 Level Denver Center
09:42AM 40.7967 -105.5122 146° Southeast 459 528 23,900 -1,260 Descending Denver Center
09:43AM 40.6742 -105.4011 145° Southeast 447 514 22,500 -1,260 Descending Denver Center
09:44AM 40.5856 -105.3200 145° Southeast 395 455 21,400 -1,020 Descending Denver Center
09:45AM 40.5000 -105.2442 146° Southeast 374 430 20,500 -1,200 Descending Denver Center
09:46AM 40.4119 -105.1728 148° Southeast 369 425 19,000 -1,680 Descending Denver Center
09:47AM 40.3275 -105.1044 148° Southeast 358 412 17,100 -1,980 Descending Denver Center
09:48AM 40.2375 -105.0336 149° Southeast 350 403 15,000 -1,800 Descending Denver Center
09:49AM 40.1589 -104.9706 148° Southeast 331 381 13,500 -1,020 Descending Denver Center
09:50AM 40.0797 -104.9069 148° Southeast 333 383 13,000 -300 Descending Denver Center
09:51AM 40.0053 -104.8469 148° Southeast 290 334 13,000 -360 Level Denver Center
09:52AM 39.9331 -104.8061 157° South 291 335 12,300 -840 Descending Denver Center
09:53AM 39.8567 -104.8075 181° South 279 321 11,300 -720 Descending Denver Center
09:54AM 39.7797 -104.8092 181° South 260 299 10,900 -840 Descending Denver Center
09:55AM 39.7133 -104.8000 174° South 242 278 9,700 -1,200 Descending Denver Center
09:56AM 39.7042 -104.7106 98° East 244 281 8,500 -1,200 Descending Denver Center
09:58AM 39.7239 -104.6442 69° East 210 242 7,300 -1,200 Descending Denver Center